sensor_id;sensor_type;location;lat;lon;timestamp;pressure;altitude;pressure_sealevel;temperature;humidity
60479;BME280;46321;48.398;11.754;2023-05-10T00:01:15;95943.09;;;13.60;89.72
60479;BME280;46321;48.398;11.754;2023-05-10T00:03:40;95950.25;;;13.53;89.97
60479;BME280;46321;48.398;11.754;2023-05-10T00:06:05;95943.75;;;13.55;89.59
60479;BME280;46321;48.398;11.754;2023-05-10T00:08:31;95944.53;;;13.56;89.80
60479;BME280;46321;48.398;11.754;2023-05-10T00:10:56;95949.44;;;13.45;91.22
60479;BME280;46321;48.398;11.754;2023-05-10T00:13:21;95954.97;;;13.50;91.16
60479;BME280;46321;48.398;11.754;2023-05-10T00:15:47;95954.75;;;13.52;91.13
60479;BME280;46321;48.398;11.754;2023-05-10T00:18:12;95955.38;;;13.47;91.50
60479;BME280;46321;48.398;11.754;2023-05-10T00:20:37;95951.69;;;13.48;91.57
60479;BME280;46321;48.398;11.754;2023-05-10T00:23:03;95945.78;;;13.39;92.48
60479;BME280;46321;48.398;11.754;2023-05-10T00:25:28;95952.31;;;13.37;92.67
60479;BME280;46321;48.398;11.754;2023-05-10T00:27:53;95941.88;;;13.42;92.47
60479;BME280;46321;48.398;11.754;2023-05-10T00:30:20;95944.94;;;13.39;92.49
60479;BME280;46321;48.398;11.754;2023-05-10T00:32:45;95944.13;;;13.38;92.56
60479;BME280;46321;48.398;11.754;2023-05-10T00:35:13;95951.91;;;13.33;93.41
60479;BME280;46321;48.398;11.754;2023-05-10T00:37:38;95949.84;;;13.35;93.68
60479;BME280;46321;48.398;11.754;2023-05-10T00:40:04;95948.22;;;13.34;93.33
60479;BME280;46321;48.398;11.754;2023-05-10T00:42:30;95950.50;;;13.31;93.07
60479;BME280;46321;48.398;11.754;2023-05-10T00:44:55;95951.09;;;13.26;94.08
60479;BME280;46321;48.398;11.754;2023-05-10T00:47:21;95950.69;;;13.22;94.50
60479;BME280;46321;48.398;11.754;2023-05-10T00:49:47;95942.31;;;13.12;94.82
60479;BME280;46321;48.398;11.754;2023-05-10T00:52:12;95941.09;;;13.08;95.40
60479;BME280;46321;48.398;11.754;2023-05-10T00:54:38;95946.59;;;13.13;95.07
60479;BME280;46321;48.398;11.754;2023-05-10T00:57:03;95943.53;;;13.16;95.82
60479;BME280;46321;48.398;11.754;2023-05-10T00:59:29;95947.22;;;13.01;96.45
60479;BME280;46321;48.398;11.754;2023-05-10T01:01:54;95936.78;;;13.07;96.49
60479;BME280;46321;48.398;11.754;2023-05-10T01:04:20;95943.75;;;13.08;96.10
60479;BME280;46321;48.398;11.754;2023-05-10T01:06:53;95935.16;;;13.12;95.51
60479;BME280;46321;48.398;11.754;2023-05-10T01:09:20;95939.25;;;13.08;96.30
60479;BME280;46321;48.398;11.754;2023-05-10T01:11:46;95939.25;;;13.08;96.64
60479;BME280;46321;48.398;11.754;2023-05-10T01:14:11;95937.41;;;12.95;97.89
60479;BME280;46321;48.398;11.754;2023-05-10T01:16:38;95939.03;;;12.96;97.54
60479;BME280;46321;48.398;11.754;2023-05-10T01:19:06;95941.28;;;13.06;97.85
60479;BME280;46321;48.398;11.754;2023-05-10T01:22:45;95931.91;;;13.10;96.94
60479;BME280;46321;48.398;11.754;2023-05-10T01:33:43;95938.00;;;12.97;98.48
60479;BME280;46321;48.398;11.754;2023-05-10T01:36:26;95926.97;;;13.07;97.74
60479;BME280;46321;48.398;11.754;2023-05-10T01:39:13;95934.97;;;13.14;97.45
60479;BME280;46321;48.398;11.754;2023-05-10T01:42:09;95938.84;;;13.11;97.26
60479;BME280;46321;48.398;11.754;2023-05-10T01:47:09;95934.34;;;13.12;96.64
60479;BME280;46321;48.398;11.754;2023-05-10T01:49:40;95937.00;;;13.12;97.12
60479;BME280;46321;48.398;11.754;2023-05-10T01:52:10;95934.13;;;13.13;96.84
60479;BME280;46321;48.398;11.754;2023-05-10T01:54:38;95935.97;;;13.13;96.98
60479;BME280;46321;48.398;11.754;2023-05-10T01:57:06;95936.38;;;13.10;96.81
60479;BME280;46321;48.398;11.754;2023-05-10T01:59:36;95932.91;;;13.09;96.73
60479;BME280;46321;48.398;11.754;2023-05-10T02:02:07;95934.34;;;12.91;98.17
60479;BME280;46321;48.398;11.754;2023-05-10T02:04:37;95939.03;;;12.96;97.84
60479;BME280;46321;48.398;11.754;2023-05-10T02:07:04;95938.44;;;13.01;97.52
60479;BME280;46321;48.398;11.754;2023-05-10T02:09:32;95937.63;;;13.00;97.59
60479;BME280;46321;48.398;11.754;2023-05-10T02:11:59;95947.22;;;13.01;97.69
60479;BME280;46321;48.398;11.754;2023-05-10T02:14:29;95945.19;;;12.97;97.60
60479;BME280;46321;48.398;11.754;2023-05-10T02:16:56;95941.50;;;12.98;97.69
60479;BME280;46321;48.398;11.754;2023-05-10T02:19:23;95938.44;;;13.01;97.69
60479;BME280;46321;48.398;11.754;2023-05-10T02:21:50;95934.34;;;12.98;97.04
60479;BME280;46321;48.398;11.754;2023-05-10T02:24:17;95932.69;;;13.04;96.80
60479;BME280;46321;48.398;11.754;2023-05-10T02:26:44;95938.00;;;12.97;97.09
60479;BME280;46321;48.398;11.754;2023-05-10T02:29:10;95933.72;;;12.96;96.91
60479;BME280;46321;48.398;11.754;2023-05-10T02:31:37;95941.09;;;12.94;97.00
60479;BME280;46321;48.398;11.754;2023-05-10T02:34:04;95938.44;;;12.94;97.28
60479;BME280;46321;48.398;11.754;2023-05-10T02:36:31;95946.41;;;12.87;97.66
60479;BME280;46321;48.398;11.754;2023-05-10T02:38:58;95949.06;;;12.87;98.13
60479;BME280;46321;48.398;11.754;2023-05-10T02:41:26;95942.91;;;12.87;97.08
60479;BME280;46321;48.398;11.754;2023-05-10T02:43:56;95941.50;;;12.91;97.16
60479;BME280;46321;48.398;11.754;2023-05-10T02:46:22;95934.72;;;12.81;97.45
60479;BME280;46321;48.398;11.754;2023-05-10T02:48:48;95945.34;;;12.88;97.19
60479;BME280;46321;48.398;11.754;2023-05-10T02:51:15;95945.78;;;12.78;97.97
60479;BME280;46321;48.398;11.754;2023-05-10T02:53:43;95944.56;;;12.81;97.82
60479;BME280;46321;48.398;11.754;2023-05-10T02:56:13;95943.53;;;12.82;97.66
60479;BME280;46321;48.398;11.754;2023-05-10T02:58:42;95937.22;;;12.83;97.45
60479;BME280;46321;48.398;11.754;2023-05-10T03:01:07;95944.13;;;12.84;97.42
60479;BME280;46321;48.398;11.754;2023-05-10T03:03:33;95948.84;;;12.82;97.03
60479;BME280;46321;48.398;11.754;2023-05-10T03:05:58;95952.53;;;12.88;97.29
60479;BME280;46321;48.398;11.754;2023-05-10T03:08:23;95947.81;;;12.83;97.44
60479;BME280;46321;48.398;11.754;2023-05-10T03:13:56;95942.69;;;12.75;98.02
60479;BME280;46321;48.398;11.754;2023-05-10T03:16:29;95955.97;;;12.75;98.15
60479;BME280;46321;48.398;11.754;2023-05-10T03:19:12;95950.47;;;12.76;98.02
60479;BME280;46321;48.398;11.754;2023-05-10T03:21:41;95949.44;;;12.77;97.75
60479;BME280;46321;48.398;11.754;2023-05-10T03:24:12;95954.75;;;12.77;97.49
60479;BME280;46321;48.398;11.754;2023-05-10T03:26:41;95954.97;;;12.82;97.39
60479;BME280;46321;48.398;11.754;2023-05-10T03:29:08;95957.00;;;12.80;97.25
60479;BME280;46321;48.398;11.754;2023-05-10T03:31:35;95957.84;;;12.81;97.00
60479;BME280;46321;48.398;11.754;2023-05-10T03:34:00;95959.66;;;12.74;97.10
60479;BME280;46321;48.398;11.754;2023-05-10T03:36:26;95958.44;;;12.76;97.00
60479;BME280;46321;48.398;11.754;2023-05-10T03:38:51;95965.38;;;12.77;97.21
60479;BME280;46321;48.398;11.754;2023-05-10T03:41:16;95956.78;;;12.75;97.61
60479;BME280;46321;48.398;11.754;2023-05-10T03:43:42;95964.16;;;12.73;97.18
60479;BME280;46321;48.398;11.754;2023-05-10T03:46:07;95962.09;;;12.68;96.88
60479;BME280;46321;48.398;11.754;2023-05-10T03:48:32;95963.53;;;12.71;96.77
60479;BME280;46321;48.398;11.754;2023-05-10T03:50:58;95958.63;;;12.75;96.54
60479;BME280;46321;48.398;11.754;2023-05-10T03:53:23;95963.75;;;12.76;96.18
60479;BME280;46321;48.398;11.754;2023-05-10T03:55:48;95966.19;;;12.78;96.01
60479;BME280;46321;48.398;11.754;2023-05-10T03:58:14;95966.00;;;12.79;95.58
60479;BME280;46321;48.398;11.754;2023-05-10T04:00:39;95965.81;;;12.81;95.89
60479;BME280;46321;48.398;11.754;2023-05-10T04:03:09;95966.00;;;12.79;95.62
60479;BME280;46321;48.398;11.754;2023-05-10T04:05:34;95968.47;;;12.81;96.12
60479;BME280;46321;48.398;11.754;2023-05-10T04:08:00;95973.16;;;12.72;96.48
60479;BME280;46321;48.398;11.754;2023-05-10T04:10:25;95976.59;;;12.73;96.21
60479;BME280;46321;48.398;11.754;2023-05-10T04:12:50;95973.91;;;12.59;97.77
60479;BME280;46321;48.398;11.754;2023-05-10T04:15:16;95977.03;;;12.69;96.70
60479;BME280;46321;48.398;11.754;2023-05-10T04:17:41;95979.09;;;12.81;96.65
60479;BME280;46321;48.398;11.754;2023-05-10T04:20:06;95979.06;;;12.74;96.44
60479;BME280;46321;48.398;11.754;2023-05-10T04:22:32;95979.69;;;12.76;96.70
60479;BME280;46321;48.398;11.754;2023-05-10T04:24:57;95972.34;;;12.78;97.06
60479;BME280;46321;48.398;11.754;2023-05-10T04:27:23;95977.63;;;12.71;97.18
60479;BME280;46321;48.398;11.754;2023-05-10T04:29:48;95981.72;;;12.74;97.10
60479;BME280;46321;48.398;11.754;2023-05-10T04:32:13;95982.53;;;12.68;97.86
60479;BME280;46321;48.398;11.754;2023-05-10T04:34:38;95984.16;;;12.69;97.61
60479;BME280;46321;48.398;11.754;2023-05-10T04:37:04;95976.41;;;12.74;97.63
60479;BME280;46321;48.398;11.754;2023-05-10T04:39:29;95978.03;;;12.75;97.25
60479;BME280;46321;48.398;11.754;2023-05-10T04:41:54;95978.66;;;12.77;97.29
60479;BME280;46321;48.398;11.754;2023-05-10T04:44:19;95980.91;;;12.74;97.83
60479;BME280;46321;48.398;11.754;2023-05-10T04:46:45;95985.41;;;12.80;97.51
60479;BME280;46321;48.398;11.754;2023-05-10T04:49:10;95986.44;;;12.86;97.15
60479;BME280;46321;48.398;11.754;2023-05-10T04:51:35;95983.19;;;12.84;96.67
60479;BME280;46321;48.398;11.754;2023-05-10T04:54:01;95986.22;;;12.80;97.58
60479;BME280;46321;48.398;11.754;2023-05-10T04:56:26;95988.06;;;12.80;97.37
60479;BME280;46321;48.398;11.754;2023-05-10T04:58:51;95995.63;;;12.83;97.32
60479;BME280;46321;48.398;11.754;2023-05-10T05:01:16;95988.50;;;12.84;97.33
60479;BME280;46321;48.398;11.754;2023-05-10T05:03:42;95994.19;;;12.80;98.26
60479;BME280;46321;48.398;11.754;2023-05-10T05:06:07;95994.41;;;12.86;98.56
60479;BME280;46321;48.398;11.754;2023-05-10T05:08:32;96006.66;;;12.87;98.25
60479;BME280;46321;48.398;11.754;2023-05-10T05:10:58;96005.22;;;12.91;97.55
60479;BME280;46321;48.398;11.754;2023-05-10T05:13:24;95999.75;;;12.99;96.76
60479;BME280;46321;48.398;11.754;2023-05-10T05:15:49;96007.09;;;13.11;95.43
60479;BME280;46321;48.398;11.754;2023-05-10T05:18:14;96004.22;;;12.99;95.43
60479;BME280;46321;48.398;11.754;2023-05-10T05:20:40;96014.25;;;13.03;94.39
60479;BME280;46321;48.398;11.754;2023-05-10T05:23:05;96018.34;;;12.99;94.81
60479;BME280;46321;48.398;11.754;2023-05-10T05:25:30;96015.69;;;12.99;95.70
60479;BME280;46321;48.398;11.754;2023-05-10T05:27:56;96022.00;;;12.91;95.31
60479;BME280;46321;48.398;11.754;2023-05-10T05:30:21;96027.09;;;12.93;95.14
60479;BME280;46321;48.398;11.754;2023-05-10T05:32:46;96027.28;;;12.85;95.44
60479;BME280;46321;48.398;11.754;2023-05-10T05:35:14;96031.59;;;12.86;95.99
60479;BME280;46321;48.398;11.754;2023-05-10T05:37:40;96036.91;;;12.86;96.56
60479;BME280;46321;48.398;11.754;2023-05-10T05:40:05;96036.28;;;12.90;95.81
60479;BME280;46321;48.398;11.754;2023-05-10T05:42:31;96045.50;;;12.88;94.84
60479;BME280;46321;48.398;11.754;2023-05-10T05:44:56;96046.91;;;12.90;94.50
60479;BME280;46321;48.398;11.754;2023-05-10T05:47:22;96052.03;;;12.92;94.15
60479;BME280;46321;48.398;11.754;2023-05-10T05:49:47;96058.19;;;12.92;93.22
60479;BME280;46321;48.398;11.754;2023-05-10T05:52:13;96047.56;;;12.99;93.11
60479;BME280;46321;48.398;11.754;2023-05-10T05:54:38;96051.63;;;12.95;92.42
60479;BME280;46321;48.398;11.754;2023-05-10T05:57:04;96058.19;;;12.92;91.62
60479;BME280;46321;48.398;11.754;2023-05-10T05:59:29;96065.94;;;12.94;91.45
60479;BME280;46321;48.398;11.754;2023-05-10T06:01:54;96063.91;;;12.96;91.79
60479;BME280;46321;48.398;11.754;2023-05-10T06:04:19;96059.78;;;12.93;92.11
60479;BME280;46321;48.398;11.754;2023-05-10T06:06:45;96063.28;;;12.94;91.62
60479;BME280;46321;48.398;11.754;2023-05-10T06:09:10;96072.09;;;13.01;90.95
60479;BME280;46321;48.398;11.754;2023-05-10T06:11:36;96072.47;;;12.98;90.00
60479;BME280;46321;48.398;11.754;2023-05-10T06:14:02;96086.00;;;13.03;89.27
60479;BME280;46321;48.398;11.754;2023-05-10T06:16:29;96085.16;;;13.03;89.74
60479;BME280;46321;48.398;11.754;2023-05-10T06:18:54;96085.75;;;12.98;89.85
60479;BME280;46321;48.398;11.754;2023-05-10T06:21:20;96086.78;;;13.04;89.46
60479;BME280;46321;48.398;11.754;2023-05-10T06:23:45;96093.97;;;13.03;90.09
60479;BME280;46321;48.398;11.754;2023-05-10T06:26:11;96095.78;;;13.03;89.54
60479;BME280;46321;48.398;11.754;2023-05-10T06:28:36;96099.88;;;12.99;90.01
60479;BME280;46321;48.398;11.754;2023-05-10T06:31:03;96100.69;;;12.99;89.67
60479;BME280;46321;48.398;11.754;2023-05-10T06:33:29;96103.16;;;13.01;89.88
60479;BME280;46321;48.398;11.754;2023-05-10T06:35:54;96110.53;;;13.05;89.85
60479;BME280;46321;48.398;11.754;2023-05-10T06:38:19;96107.63;;;13.00;88.42
60479;BME280;46321;48.398;11.754;2023-05-10T06:40:44;96112.13;;;13.00;88.61
60479;BME280;46321;48.398;11.754;2023-05-10T06:43:10;96109.06;;;12.96;87.55
60479;BME280;46321;48.398;11.754;2023-05-10T06:45:35;96112.94;;;12.93;87.71
60479;BME280;46321;48.398;11.754;2023-05-10T06:48:01;96115.38;;;12.95;88.31
60479;BME280;46321;48.398;11.754;2023-05-10T06:50:26;96122.97;;;12.98;87.66
60479;BME280;46321;48.398;11.754;2023-05-10T06:52:51;96126.03;;;13.02;89.04
60479;BME280;46321;48.398;11.754;2023-05-10T06:55:17;96121.75;;;13.08;87.82
60479;BME280;46321;48.398;11.754;2023-05-10T06:57:42;96130.97;;;13.12;88.07
60479;BME280;46321;48.398;11.754;2023-05-10T07:00:08;96123.66;;;13.27;87.91
60479;BME280;46321;48.398;11.754;2023-05-10T07:02:34;96124.25;;;13.30;87.64
60479;BME280;46321;48.398;11.754;2023-05-10T07:05:00;96128.16;;;13.47;86.78
60479;BME280;46321;48.398;11.754;2023-05-10T07:07:25;96126.56;;;13.60;87.24
60479;BME280;46321;48.398;11.754;2023-05-10T07:09:50;96129.66;;;13.64;85.98
60479;BME280;46321;48.398;11.754;2023-05-10T07:12:16;96134.38;;;13.68;85.72
60479;BME280;46321;48.398;11.754;2023-05-10T07:14:42;96124.53;;;13.76;86.45
60479;BME280;46321;48.398;11.754;2023-05-10T07:17:07;96127.41;;;13.94;85.97
60479;BME280;46321;48.398;11.754;2023-05-10T07:19:32;96131.06;;;14.07;84.06
60479;BME280;46321;48.398;11.754;2023-05-10T07:21:58;96132.31;;;14.11;85.34
60479;BME280;46321;48.398;11.754;2023-05-10T07:24:23;96142.13;;;14.11;84.01
60479;BME280;46321;48.398;11.754;2023-05-10T07:26:49;96141.69;;;14.20;82.76
60479;BME280;46321;48.398;11.754;2023-05-10T07:29:14;96142.28;;;14.29;82.84
60479;BME280;46321;48.398;11.754;2023-05-10T07:31:39;96150.06;;;14.38;80.98
60479;BME280;46321;48.398;11.754;2023-05-10T07:34:07;96142.09;;;14.31;79.85
60479;BME280;46321;48.398;11.754;2023-05-10T07:36:32;96141.03;;;14.46;81.15
60479;BME280;46321;48.398;11.754;2023-05-10T07:38:57;96151.28;;;14.49;80.18
60479;BME280;46321;48.398;11.754;2023-05-10T07:41:23;96146.50;;;14.71;79.88
60479;BME280;46321;48.398;11.754;2023-05-10T07:43:48;96151.00;;;14.84;79.36
60479;BME280;46321;48.398;11.754;2023-05-10T07:46:13;96154.47;;;14.92;79.36
60479;BME280;46321;48.398;11.754;2023-05-10T07:48:38;96141.44;;;15.16;78.26
60479;BME280;46321;48.398;11.754;2023-05-10T07:51:04;96154.84;;;15.34;77.44
60479;BME280;46321;48.398;11.754;2023-05-10T07:53:29;96153.59;;;15.37;76.89
60479;BME280;46321;48.398;11.754;2023-05-10T07:55:57;96150.66;;;15.52;76.78
60479;BME280;46321;48.398;11.754;2023-05-10T07:58:23;96153.84;;;15.68;77.58
60479;BME280;46321;48.398;11.754;2023-05-10T08:00:49;96159.34;;;15.99;76.23
60479;BME280;46321;48.398;11.754;2023-05-10T08:03:14;96153.28;;;16.36;76.45
60479;BME280;46321;48.398;11.754;2023-05-10T08:05:40;96148.72;;;16.62;75.56
60479;BME280;46321;48.398;11.754;2023-05-10T08:08:05;96149.25;;;16.71;73.77
60479;BME280;46321;48.398;11.754;2023-05-10T08:10:31;96147.81;;;16.68;73.37
60479;BME280;46321;48.398;11.754;2023-05-10T08:12:56;96144.03;;;16.57;70.99
60479;BME280;46321;48.398;11.754;2023-05-10T08:15:23;96149.34;;;16.39;70.94
60479;BME280;46321;48.398;11.754;2023-05-10T08:17:48;96163.47;;;16.46;69.85
60479;BME280;46321;48.398;11.754;2023-05-10T08:20:13;96155.66;;;16.44;71.12
60479;BME280;46321;48.398;11.754;2023-05-10T08:22:41;96156.06;;;16.48;69.73
60479;BME280;46321;48.398;11.754;2023-05-10T08:25:07;96150.19;;;16.39;70.32
60479;BME280;46321;48.398;11.754;2023-05-10T08:27:32;96153.31;;;16.55;67.98
60479;BME280;46321;48.398;11.754;2023-05-10T08:29:58;96153.31;;;16.55;68.05
60479;BME280;46321;48.398;11.754;2023-05-10T08:32:23;96149.81;;;16.54;67.59
60479;BME280;46321;48.398;11.754;2023-05-10T08:34:48;96163.59;;;16.51;67.30
60479;BME280;46321;48.398;11.754;2023-05-10T08:37:13;96159.00;;;16.58;68.16
60479;BME280;46321;48.398;11.754;2023-05-10T08:39:39;96154.56;;;16.52;67.65
60479;BME280;46321;48.398;11.754;2023-05-10T08:42:05;96161.31;;;16.55;68.50
60479;BME280;46321;48.398;11.754;2023-05-10T08:44:35;96167.91;;;16.52;68.40
60479;BME280;46321;48.398;11.754;2023-05-10T08:47:04;96165.75;;;16.42;68.27
60479;BME280;46321;48.398;11.754;2023-05-10T08:49:31;96161.63;;;16.46;68.51
60479;BME280;46321;48.398;11.754;2023-05-10T08:51:57;96163.81;;;16.31;70.39
60479;BME280;46321;48.398;11.754;2023-05-10T08:54:24;96164.16;;;16.16;68.12
60479;BME280;46321;48.398;11.754;2023-05-10T08:56:50;96162.50;;;15.89;67.98
60479;BME280;46321;48.398;11.754;2023-05-10T08:59:15;96167.22;;;15.87;68.94
60479;BME280;46321;48.398;11.754;2023-05-10T09:01:43;96173.06;;;15.77;70.09
60479;BME280;46321;48.398;11.754;2023-05-10T09:04:09;96171.50;;;15.62;70.13
60479;BME280;46321;48.398;11.754;2023-05-10T09:06:35;96174.63;;;15.59;70.22
60479;BME280;46321;48.398;11.754;2023-05-10T09:09:01;96176.28;;;15.53;71.35
60479;BME280;46321;48.398;11.754;2023-05-10T09:11:26;96173.94;;;15.64;71.80
60479;BME280;46321;48.398;11.754;2023-05-10T09:13:54;96181.34;;;15.62;70.82
60479;BME280;46321;48.398;11.754;2023-05-10T09:16:20;96172.88;;;15.39;71.51
60479;BME280;46321;48.398;11.754;2023-05-10T09:18:45;96175.75;;;15.38;70.85
60479;BME280;46321;48.398;11.754;2023-05-10T09:21:11;96180.19;;;15.51;71.18
60479;BME280;46321;48.398;11.754;2023-05-10T09:23:36;96173.88;;;15.45;72.18
60479;BME280;46321;48.398;11.754;2023-05-10T09:26:05;96175.50;;;15.46;72.68
60479;BME280;46321;48.398;11.754;2023-05-10T09:28:34;96181.56;;;15.60;73.88
60479;BME280;46321;48.398;11.754;2023-05-10T09:31:14;96180.50;;;15.68;73.71
60479;BME280;46321;48.398;11.754;2023-05-10T09:33:46;96176.91;;;16.13;74.80
60479;BME280;46321;48.398;11.754;2023-05-10T09:36:12;96171.81;;;17.44;71.07
60479;BME280;46321;48.398;11.754;2023-05-10T09:38:47;96167.38;;;17.92;68.49
60479;BME280;46321;48.398;11.754;2023-05-10T09:41:20;96164.41;;;18.49;66.34
60479;BME280;46321;48.398;11.754;2023-05-10T09:43:46;96165.94;;;18.57;63.95
60479;BME280;46321;48.398;11.754;2023-05-10T09:46:11;96164.88;;;18.22;64.05
60479;BME280;46321;48.398;11.754;2023-05-10T09:48:46;96166.72;;;17.54;65.97
60479;BME280;46321;48.398;11.754;2023-05-10T09:51:22;96177.09;;;17.32;65.18
60479;BME280;46321;48.398;11.754;2023-05-10T09:53:48;96182.53;;;17.06;65.92
60479;BME280;46321;48.398;11.754;2023-05-10T09:56:34;96179.13;;;16.99;67.32
60479;BME280;46321;48.398;11.754;2023-05-10T09:59:04;96178.19;;;16.93;66.75
60479;BME280;46321;48.398;11.754;2023-05-10T10:01:30;96176.00;;;16.83;67.42
60479;BME280;46321;48.398;11.754;2023-05-10T10:03:56;96171.50;;;16.83;67.96
60479;BME280;46321;48.398;11.754;2023-05-10T10:06:23;96170.81;;;16.88;69.24
60479;BME280;46321;48.398;11.754;2023-05-10T10:08:50;96180.34;;;16.84;70.29
60479;BME280;46321;48.398;11.754;2023-05-10T10:11:16;96173.09;;;17.03;68.82
60479;BME280;46321;48.398;11.754;2023-05-10T10:13:41;96172.53;;;17.20;67.98
60479;BME280;46321;48.398;11.754;2023-05-10T10:16:08;96174.47;;;17.44;67.46
60479;BME280;46321;48.398;11.754;2023-05-10T10:18:34;96175.63;;;17.36;67.11
60479;BME280;46321;48.398;11.754;2023-05-10T10:21:04;96184.50;;;17.48;66.67
60479;BME280;46321;48.398;11.754;2023-05-10T10:23:29;96177.72;;;17.34;66.72
60479;BME280;46321;48.398;11.754;2023-05-10T10:25:55;96184.19;;;17.26;67.18
60479;BME280;46321;48.398;11.754;2023-05-10T10:28:30;96170.63;;;17.39;67.17
60479;BME280;46321;48.398;11.754;2023-05-10T10:31:13;96173.16;;;17.34;67.05
60479;BME280;46321;48.398;11.754;2023-05-10T10:33:55;96166.41;;;17.32;67.85
60479;BME280;46321;48.398;11.754;2023-05-10T10:36:22;96170.31;;;17.48;66.95
60479;BME280;46321;48.398;11.754;2023-05-10T10:52:21;96163.13;;;18.39;64.12
60479;BME280;46321;48.398;11.754;2023-05-10T10:54:51;96165.00;;;18.39;62.04
60479;BME280;46321;48.398;11.754;2023-05-10T10:57:18;96161.75;;;18.37;63.03
60479;BME280;46321;48.398;11.754;2023-05-10T10:59:44;96161.25;;;18.16;62.75
60479;BME280;46321;48.398;11.754;2023-05-10T11:02:34;96154.50;;;18.13;61.87
60479;BME280;46321;48.398;11.754;2023-05-10T11:05:00;96151.03;;;18.25;62.79
60479;BME280;46321;48.398;11.754;2023-05-10T11:07:56;96156.63;;;18.23;62.18
60479;BME280;46321;48.398;11.754;2023-05-10T11:10:22;96149.19;;;18.25;62.76
60479;BME280;46321;48.398;11.754;2023-05-10T11:13:05;96143.56;;;18.27;62.17
60479;BME280;46321;48.398;11.754;2023-05-10T11:15:40;96147.06;;;18.27;62.32
60479;BME280;46321;48.398;11.754;2023-05-10T11:18:23;96143.69;;;18.44;60.53
60479;BME280;46321;48.398;11.754;2023-05-10T11:23:30;96145.91;;;19.00;59.15
60479;BME280;46321;48.398;11.754;2023-05-10T11:25:55;96139.53;;;18.77;56.84
60479;BME280;46321;48.398;11.754;2023-05-10T11:28:21;96135.81;;;18.79;58.81
60479;BME280;46321;48.398;11.754;2023-05-10T11:30:46;96147.41;;;18.31;58.66
60479;BME280;46321;48.398;11.754;2023-05-10T11:33:16;96153.13;;;18.59;59.35
60479;BME280;46321;48.398;11.754;2023-05-10T11:35:42;96150.66;;;18.57;59.02
60479;BME280;46321;48.398;11.754;2023-05-10T11:38:11;96153.22;;;18.40;58.76
60479;BME280;46321;48.398;11.754;2023-05-10T11:40:37;96157.22;;;18.25;58.99
60479;BME280;46321;48.398;11.754;2023-05-10T11:43:03;96161.13;;;18.11;57.94
60479;BME280;46321;48.398;11.754;2023-05-10T11:45:32;96162.22;;;17.79;57.02
60479;BME280;46321;48.398;11.754;2023-05-10T11:47:58;96176.75;;;17.28;58.66
60479;BME280;46321;48.398;11.754;2023-05-10T11:50:24;96169.41;;;17.23;58.43
60479;BME280;46321;48.398;11.754;2023-05-10T11:52:52;96177.34;;;17.11;59.73
60479;BME280;46321;48.398;11.754;2023-05-10T11:55:18;96173.34;;;16.83;60.88
60479;BME280;46321;48.398;11.754;2023-05-10T11:57:43;96173.09;;;16.85;62.49
60479;BME280;46321;48.398;11.754;2023-05-10T12:00:11;96177.06;;;16.63;62.36
60479;BME280;46321;48.398;11.754;2023-05-10T12:02:37;96171.13;;;16.61;62.94
60479;BME280;46321;48.398;11.754;2023-05-10T12:05:03;96172.91;;;16.48;64.64
60479;BME280;46321;48.398;11.754;2023-05-10T12:07:29;96176.66;;;16.41;64.90
60479;BME280;46321;48.398;11.754;2023-05-10T12:10:11;96170.94;;;16.37;64.25
60479;BME280;46321;48.398;11.754;2023-05-10T12:12:41;96173.34;;;16.20;64.74
60479;BME280;46321;48.398;11.754;2023-05-10T12:15:11;96170.09;;;16.18;66.47
60479;BME280;46321;48.398;11.754;2023-05-10T12:17:38;96177.25;;;16.24;67.17
60479;BME280;46321;48.398;11.754;2023-05-10T12:20:17;96166.75;;;16.22;65.91
60479;BME280;46321;48.398;11.754;2023-05-10T12:22:49;96168.84;;;16.20;66.46
60479;BME280;46321;48.398;11.754;2023-05-10T12:25:14;96169.38;;;16.29;66.34
60479;BME280;46321;48.398;11.754;2023-05-10T12:27:40;96171.16;;;16.35;65.86
60479;BME280;46321;48.398;11.754;2023-05-10T12:30:05;96170.25;;;16.23;66.05
60479;BME280;46321;48.398;11.754;2023-05-10T12:32:43;96165.56;;;16.18;66.78
60479;BME280;46321;48.398;11.754;2023-05-10T12:35:09;96167.94;;;16.27;67.08
60479;BME280;46321;48.398;11.754;2023-05-10T12:37:34;96178.84;;;16.25;65.37
60479;BME280;46321;48.398;11.754;2023-05-10T12:40:05;96183.97;;;16.27;65.79
60479;BME280;46321;48.398;11.754;2023-05-10T12:42:31;96188.28;;;16.28;65.29
60479;BME280;46321;48.398;11.754;2023-05-10T12:44:57;96188.28;;;16.28;65.90
60479;BME280;46321;48.398;11.754;2023-05-10T12:47:22;96190.38;;;16.25;66.27
60479;BME280;46321;48.398;11.754;2023-05-10T12:49:47;96189.25;;;16.33;66.67
60479;BME280;46321;48.398;11.754;2023-05-10T12:52:13;96194.00;;;16.31;66.34
60479;BME280;46321;48.398;11.754;2023-05-10T12:54:38;96194.75;;;16.39;67.30
60479;BME280;46321;48.398;11.754;2023-05-10T12:57:03;96209.53;;;16.41;66.97
60479;BME280;46321;48.398;11.754;2023-05-10T12:59:28;96203.28;;;15.96;67.47
60479;BME280;46321;48.398;11.754;2023-05-10T13:01:54;96196.59;;;15.87;67.90
60479;BME280;46321;48.398;11.754;2023-05-10T13:04:19;96202.75;;;15.87;68.24
60479;BME280;46321;48.398;11.754;2023-05-10T13:06:44;96211.34;;;15.89;69.09
60479;BME280;46321;48.398;11.754;2023-05-10T13:09:10;96204.63;;;15.80;69.23
60479;BME280;46321;48.398;11.754;2023-05-10T13:11:35;96203.44;;;15.76;69.22
60479;BME280;46321;48.398;11.754;2023-05-10T13:14:00;96202.28;;;15.65;69.84
60479;BME280;46321;48.398;11.754;2023-05-10T13:16:25;96209.72;;;15.56;71.36
60479;BME280;46321;48.398;11.754;2023-05-10T13:18:51;96213.44;;;15.48;73.21
60479;BME280;46321;48.398;11.754;2023-05-10T13:21:17;96210.00;;;15.41;71.85